createdAt,value
2023-03-31T00:01:44.280Z,8.37
2023-03-31T00:04:14.179Z,8.35
2023-03-31T00:06:43.170Z,8.32
2023-03-31T00:09:14.248Z,8.31
2023-03-31T00:11:43.071Z,8.29
2023-03-31T00:14:12.124Z,8.25
2023-03-31T00:16:41.198Z,8.21
2023-03-31T00:19:13.934Z,8.16
2023-03-31T00:21:43.137Z,8.13
2023-03-31T00:24:12.804Z,8.11
2023-03-31T00:26:43.902Z,8.09
2023-03-31T00:29:15.192Z,8.05
2023-03-31T00:31:44.373Z,8.01
2023-03-31T00:34:13.263Z,7.96
2023-03-31T00:36:47.891Z,7.91
2023-03-31T00:39:21.867Z,7.86
2023-03-31T00:41:51.479Z,7.81
2023-03-31T00:44:24.904Z,7.77
2023-03-31T00:47:07.744Z,7.75
2023-03-31T00:49:42.331Z,7.72
2023-03-31T00:52:23.922Z,7.69
2023-03-31T00:55:00.264Z,7.67
2023-03-31T00:57:32.870Z,7.67
2023-03-31T01:00:31.480Z,7.67
2023-03-31T01:03:04.031Z,7.68
2023-03-31T01:05:42.936Z,7.67
2023-03-31T01:08:12.832Z,7.66
2023-03-31T01:10:45.622Z,7.63
2023-03-31T01:13:15.759Z,7.60
2023-03-31T01:15:44.835Z,7.58
2023-03-31T01:18:16.585Z,7.57
2023-03-31T01:21:04.238Z,7.54
2023-03-31T01:23:48.776Z,7.52
2023-03-31T01:26:46.131Z,7.50
2023-03-31T01:29:37.160Z,7.48
2023-03-31T01:32:38.434Z,7.46
2023-03-31T01:35:21.375Z,7.43
2023-03-31T01:38:18.570Z,7.40
2023-03-31T01:40:51.567Z,7.37
2023-03-31T01:43:32.841Z,7.32
2023-03-31T01:46:10.394Z,7.27
2023-03-31T01:48:42.598Z,7.22
2023-03-31T01:51:21.667Z,7.19
2023-03-31T01:54:01.203Z,7.16
2023-03-31T01:56:35.147Z,7.15
2023-03-31T01:59:11.969Z,7.13
2023-03-31T02:01:53.805Z,7.12
2023-03-31T02:04:30.838Z,7.11
2023-03-31T02:07:06.583Z,7.09
2023-03-31T02:09:41.256Z,7.08
2023-03-31T02:12:12.737Z,7.06
2023-03-31T02:14:44.400Z,7.06
2023-03-31T02:17:18.636Z,7.04
2023-03-31T02:19:50.178Z,7.04
2023-03-31T02:22:24.228Z,7.04
2023-03-31T02:24:53.818Z,7.04
2023-03-31T02:27:26.588Z,7.06
2023-03-31T02:29:55.965Z,7.07
2023-03-31T02:32:42.170Z,7.08
2023-03-31T02:35:13.396Z,7.08
2023-03-31T02:37:43.245Z,7.07
2023-03-31T02:40:20.717Z,7.06
2023-03-31T02:42:49.920Z,7.05
2023-03-31T02:45:39.937Z,7.02
2023-03-31T02:48:12.293Z,6.99
2023-03-31T02:51:00.004Z,6.96
2023-03-31T02:53:58.279Z,6.93
2023-03-31T02:57:07.676Z,6.89
2023-03-31T02:59:54.719Z,6.85
2023-03-31T03:02:32.490Z,6.82
2023-03-31T03:05:20.701Z,6.78
2023-03-31T03:08:28.607Z,6.73
2023-03-31T03:11:08.450Z,6.69
2023-03-31T03:14:01.173Z,6.64
2023-03-31T03:16:38.551Z,6.58
2023-03-31T03:19:07.752Z,6.52
2023-03-31T03:21:36.597Z,6.48
2023-03-31T03:24:05.682Z,6.41
2023-03-31T03:26:35.728Z,6.33
2023-03-31T03:29:05.073Z,6.21
2023-03-31T03:31:34.270Z,6.09
2023-03-31T03:34:03.670Z,5.99
2023-03-31T03:36:33.383Z,5.94
2023-03-31T03:39:02.213Z,5.90
2023-03-31T03:41:33.843Z,5.86
2023-03-31T03:44:03.042Z,5.83
2023-03-31T03:46:33.602Z,5.81
2023-03-31T03:49:02.764Z,5.81
2023-03-31T03:51:31.622Z,5.80
2023-03-31T03:54:00.663Z,5.79
2023-03-31T03:56:29.343Z,5.79
2023-03-31T03:58:58.835Z,5.78
2023-03-31T04:01:27.488Z,5.75
2023-03-31T04:03:56.616Z,5.71
2023-03-31T04:06:25.824Z,5.69
2023-03-31T04:08:54.695Z,5.66
2023-03-31T04:11:24.439Z,5.64
2023-03-31T04:13:54.310Z,5.61
2023-03-31T04:16:26.108Z,5.58
2023-03-31T04:18:59.323Z,5.56
2023-03-31T04:21:28.244Z,5.53
2023-03-31T04:24:02.257Z,5.51
2023-03-31T04:26:53.582Z,5.50
2023-03-31T04:29:23.000Z,5.49
2023-03-31T04:31:53.048Z,5.49
2023-03-31T04:34:27.436Z,5.48
2023-03-31T04:36:56.625Z,5.47
2023-03-31T04:39:27.553Z,5.45
2023-03-31T04:42:00.372Z,5.44
2023-03-31T04:44:30.489Z,5.41
2023-03-31T04:46:59.450Z,5.39
2023-03-31T04:49:28.327Z,5.38
2023-03-31T04:51:57.330Z,5.36
2023-03-31T04:54:26.109Z,5.35
2023-03-31T04:56:56.004Z,5.38
2023-03-31T04:59:26.252Z,5.43
2023-03-31T05:01:58.014Z,5.49
2023-03-31T05:04:26.939Z,5.58
2023-03-31T05:06:56.720Z,5.67
2023-03-31T05:09:27.053Z,5.77
2023-03-31T05:11:56.033Z,5.88
2023-03-31T05:14:25.430Z,5.99
2023-03-31T05:16:58.416Z,6.10
2023-03-31T05:19:29.414Z,6.23
2023-03-31T05:21:58.059Z,6.35
2023-03-31T05:24:28.642Z,6.49
2023-03-31T05:26:57.876Z,6.60
2023-03-31T05:29:27.099Z,6.72
2023-03-31T05:31:55.897Z,6.85
2023-03-31T05:34:25.058Z,6.98
2023-03-31T05:36:54.354Z,7.13
2023-03-31T05:39:23.453Z,7.28
2023-03-31T05:41:52.949Z,7.45
2023-03-31T05:44:21.762Z,7.61
2023-03-31T05:46:50.463Z,7.74
2023-03-31T05:49:19.726Z,7.79
2023-03-31T05:51:48.863Z,7.81
2023-03-31T05:54:17.927Z,7.82
2023-03-31T05:56:47.035Z,7.84
2023-03-31T05:59:16.973Z,7.84
2023-03-31T06:01:46.069Z,7.89
2023-03-31T06:04:15.443Z,7.99
2023-03-31T06:06:44.853Z,8.08
2023-03-31T06:09:13.517Z,8.14
2023-03-31T06:11:42.207Z,8.20
2023-03-31T06:14:11.070Z,8.30
2023-03-31T06:16:40.103Z,8.43
2023-03-31T06:19:09.395Z,8.57
2023-03-31T06:21:37.968Z,8.70
2023-03-31T06:24:07.465Z,8.85
2023-03-31T06:26:36.362Z,9.02
2023-03-31T06:29:05.182Z,9.17
2023-03-31T06:31:34.117Z,9.28
2023-03-31T06:34:03.029Z,9.39
2023-03-31T06:36:31.833Z,9.49
2023-03-31T06:39:00.911Z,9.59
2023-03-31T06:41:29.498Z,9.69
2023-03-31T06:43:58.177Z,9.77
2023-03-31T06:46:28.674Z,9.86
2023-03-31T06:48:57.619Z,9.93
2023-03-31T06:51:26.605Z,10.01
2023-03-31T06:53:55.299Z,10.09
2023-03-31T06:56:24.080Z,10.17
2023-03-31T06:58:52.764Z,10.26
2023-03-31T07:01:22.091Z,10.36
2023-03-31T07:03:51.437Z,10.45
2023-03-31T07:06:20.456Z,10.57
2023-03-31T07:08:50.050Z,10.69
2023-03-31T07:11:21.177Z,10.80
2023-03-31T07:13:50.299Z,10.88
2023-03-31T07:16:19.161Z,10.99
2023-03-31T07:18:48.073Z,11.11
2023-03-31T07:21:17.578Z,11.20
2023-03-31T07:23:46.264Z,11.28
2023-03-31T07:26:15.056Z,11.33
2023-03-31T07:28:44.245Z,11.37
2023-03-31T07:31:14.564Z,11.42
2023-03-31T07:33:44.498Z,11.47
2023-03-31T07:36:14.865Z,11.54
2023-03-31T07:38:47.048Z,11.62
2023-03-31T07:41:18.858Z,11.70
2023-03-31T07:43:48.746Z,11.79
2023-03-31T07:46:25.666Z,11.91
2023-03-31T07:48:57.030Z,12.02
2023-03-31T07:51:27.407Z,12.11
2023-03-31T07:53:58.445Z,12.18
2023-03-31T07:56:27.561Z,12.19
2023-03-31T07:58:57.891Z,12.22
2023-03-31T08:01:30.236Z,12.31
2023-03-31T08:03:59.686Z,12.40
2023-03-31T08:06:29.570Z,12.51
2023-03-31T08:08:59.257Z,12.62
2023-03-31T08:11:30.295Z,12.73
2023-03-31T08:13:59.193Z,12.82
2023-03-31T08:16:28.183Z,12.92
2023-03-31T08:18:57.283Z,13.02
2023-03-31T08:21:26.324Z,13.11
2023-03-31T08:23:56.464Z,13.16
2023-03-31T08:26:26.204Z,13.23
2023-03-31T08:28:55.747Z,13.32
2023-03-31T08:31:27.538Z,13.40
2023-03-31T08:33:56.903Z,13.48
2023-03-31T08:36:26.585Z,13.60
2023-03-31T08:38:56.038Z,13.72
2023-03-31T08:41:36.763Z,13.84
2023-03-31T08:44:14.665Z,13.94
2023-03-31T08:46:44.161Z,14.01
2023-03-31T08:49:16.889Z,14.10
2023-03-31T08:52:23.989Z,14.19
2023-03-31T08:54:56.947Z,14.29
2023-03-31T08:57:43.677Z,14.42
2023-03-31T09:00:18.874Z,14.59
2023-03-31T09:02:56.505Z,14.74
2023-03-31T09:05:49.119Z,14.84
2023-03-31T09:08:36.426Z,14.94
2023-03-31T09:11:16.425Z,15.00
2023-03-31T09:14:03.904Z,15.08
2023-03-31T09:16:38.531Z,15.17
2023-03-31T09:19:18.775Z,15.22
2023-03-31T09:21:52.779Z,15.19
2023-03-31T09:24:56.683Z,15.10
2023-03-31T09:27:28.812Z,15.03
2023-03-31T09:30:11.798Z,15.01
2023-03-31T09:32:40.548Z,14.99
2023-03-31T09:35:25.404Z,14.97
2023-03-31T09:37:54.757Z,14.95
2023-03-31T09:40:26.514Z,14.93
2023-03-31T09:43:00.861Z,14.92
2023-03-31T09:45:31.549Z,14.89
2023-03-31T09:48:04.589Z,14.85
2023-03-31T09:50:37.832Z,14.80
2023-03-31T09:53:08.460Z,14.77
2023-03-31T09:56:02.358Z,14.73
2023-03-31T09:58:31.437Z,14.71
2023-03-31T10:01:08.085Z,14.70
2023-03-31T10:03:54.969Z,14.70
2023-03-31T10:06:25.140Z,14.72
2023-03-31T10:08:59.928Z,14.73
2023-03-31T10:11:29.115Z,14.73
2023-03-31T10:14:04.303Z,14.75
2023-03-31T10:16:43.987Z,14.77
2023-03-31T10:19:23.085Z,14.76
2023-03-31T10:22:01.630Z,14.71
2023-03-31T10:24:41.927Z,14.66
2023-03-31T10:27:31.019Z,14.64
2023-03-31T10:30:02.795Z,14.60
2023-03-31T10:32:33.809Z,14.60
2023-03-31T10:35:21.544Z,14.60
2023-03-31T10:37:52.653Z,14.61
2023-03-31T10:40:28.759Z,14.67
2023-03-31T10:43:17.007Z,14.75
2023-03-31T10:45:50.748Z,14.76
2023-03-31T10:48:28.807Z,14.79
2023-03-31T10:51:26.884Z,14.85
2023-03-31T10:53:56.902Z,14.92
2023-03-31T10:56:44.762Z,15.03
2023-03-31T10:59:47.597Z,15.18
2023-03-31T11:02:51.906Z,15.43
2023-03-31T11:05:29.694Z,15.65
2023-03-31T11:08:20.756Z,15.82
2023-03-31T11:11:00.109Z,15.94
2023-03-31T11:13:35.016Z,16.00
2023-03-31T11:16:40.367Z,15.97
2023-03-31T11:19:12.623Z,15.90
2023-03-31T11:22:06.406Z,15.82
2023-03-31T11:25:13.999Z,15.76
2023-03-31T11:27:50.120Z,15.76
2023-03-31T11:30:41.688Z,15.76
2023-03-31T11:33:23.047Z,15.67
2023-03-31T11:36:07.752Z,15.62
2023-03-31T11:39:22.477Z,15.66
2023-03-31T11:41:54.764Z,15.72
2023-03-31T11:44:25.244Z,15.70
2023-03-31T11:46:57.106Z,15.66
2023-03-31T11:49:31.425Z,15.62
2023-03-31T11:52:16.106Z,15.58
2023-03-31T11:54:53.806Z,15.54
2023-03-31T11:57:33.478Z,15.54
2023-03-31T12:00:23.428Z,15.52
2023-03-31T12:03:22.907Z,15.50
2023-03-31T12:05:59.844Z,15.48
2023-03-31T12:08:37.949Z,15.41
2023-03-31T12:11:14.151Z,15.30
2023-03-31T12:14:22.734Z,15.17
2023-03-31T12:17:01.856Z,15.03
2023-03-31T12:19:50.906Z,14.97
2023-03-31T12:22:32.186Z,14.98
2023-03-31T12:25:01.084Z,15.03
2023-03-31T12:27:38.750Z,15.08
2023-03-31T12:30:42.824Z,15.11
2023-03-31T12:33:34.230Z,15.10
2023-03-31T12:36:13.138Z,15.05
2023-03-31T12:39:06.903Z,15.03
2023-03-31T12:42:04.684Z,14.97
2023-03-31T12:44:42.448Z,14.92
2023-03-31T12:47:42.566Z,14.89
2023-03-31T12:50:36.164Z,14.81
2023-03-31T12:53:31.882Z,14.73
2023-03-31T12:56:00.776Z,14.70
2023-03-31T12:58:32.664Z,14.66
2023-03-31T13:01:21.980Z,14.65
2023-03-31T13:04:21.834Z,14.59
2023-03-31T13:06:55.634Z,14.39
2023-03-31T13:09:44.421Z,14.23
2023-03-31T13:12:20.678Z,14.08
2023-03-31T13:14:54.214Z,13.97
2023-03-31T13:17:31.542Z,13.90
2023-03-31T13:20:34.460Z,13.83
2023-03-31T13:23:17.658Z,13.80
2023-03-31T13:25:47.161Z,13.78
2023-03-31T13:28:42.795Z,13.79
2023-03-31T13:31:16.340Z,13.81
2023-03-31T13:33:51.806Z,13.82
2023-03-31T13:36:32.839Z,13.81
2023-03-31T13:39:20.109Z,13.79
2023-03-31T13:42:19.839Z,13.75
2023-03-31T13:45:06.942Z,13.68
2023-03-31T13:47:44.471Z,13.58
2023-03-31T13:50:44.345Z,13.50
2023-03-31T13:53:22.477Z,13.44
2023-03-31T13:56:10.918Z,13.39
2023-03-31T13:58:46.060Z,13.33
2023-03-31T14:01:33.955Z,13.26
2023-03-31T14:04:14.845Z,13.15
2023-03-31T14:07:00.229Z,13.06
2023-03-31T14:09:50.314Z,12.99
2023-03-31T14:12:35.714Z,12.95
2023-03-31T14:15:07.246Z,12.93
2023-03-31T14:17:40.911Z,12.96
2023-03-31T14:20:47.432Z,12.98
2023-03-31T14:23:27.471Z,13.00
2023-03-31T14:26:48.028Z,12.99
2023-03-31T14:29:23.010Z,12.94
2023-03-31T14:32:25.171Z,12.88
2023-03-31T14:35:01.381Z,12.80
2023-03-31T14:37:31.869Z,12.74
2023-03-31T14:40:04.756Z,12.68
2023-03-31T14:42:40.459Z,12.66
2023-03-31T14:45:32.130Z,12.64
2023-03-31T14:48:14.959Z,12.70
2023-03-31T14:50:45.416Z,12.78
2023-03-31T14:53:16.666Z,12.90
2023-03-31T14:55:58.110Z,13.02
2023-03-31T14:58:35.362Z,13.12
2023-03-31T15:01:08.177Z,13.20
2023-03-31T15:03:42.045Z,13.22
2023-03-31T15:06:12.171Z,13.24
2023-03-31T15:08:41.306Z,13.25
2023-03-31T15:11:19.198Z,13.27
2023-03-31T15:14:03.434Z,13.27
2023-03-31T15:16:43.091Z,13.21
2023-03-31T15:19:18.455Z,13.13
2023-03-31T15:22:02.491Z,13.06
2023-03-31T15:24:33.121Z,13.04
2023-03-31T15:27:20.476Z,13.01
2023-03-31T15:29:51.962Z,12.98
2023-03-31T15:32:25.809Z,12.93
2023-03-31T15:35:00.331Z,12.86
2023-03-31T15:37:42.885Z,12.79
2023-03-31T15:40:33.414Z,12.72
2023-03-31T15:43:24.356Z,12.66
2023-03-31T15:45:56.314Z,12.61
2023-03-31T15:48:34.288Z,12.56
2023-03-31T15:51:21.202Z,12.51
2023-03-31T15:53:53.639Z,12.45
2023-03-31T15:56:36.289Z,12.38
2023-03-31T15:59:06.837Z,12.30
2023-03-31T16:01:43.636Z,12.25
2023-03-31T16:04:15.256Z,12.19
2023-03-31T16:06:57.852Z,12.14
2023-03-31T16:09:30.487Z,12.09
2023-03-31T16:12:02.311Z,12.03
2023-03-31T16:14:51.690Z,11.97
2023-03-31T16:17:34.340Z,11.89
2023-03-31T16:20:17.717Z,11.85
2023-03-31T16:22:51.155Z,11.84
2023-03-31T16:25:22.750Z,11.87
2023-03-31T16:27:55.161Z,11.92
2023-03-31T16:30:39.366Z,11.95
2023-03-31T16:33:14.246Z,11.97
2023-03-31T16:35:45.854Z,11.94
2023-03-31T16:38:16.683Z,11.91
2023-03-31T16:40:52.177Z,11.86
2023-03-31T16:43:30.049Z,11.82
2023-03-31T16:46:01.802Z,11.80
2023-03-31T16:48:34.387Z,11.79
2023-03-31T16:51:04.365Z,11.82
2023-03-31T16:53:36.188Z,11.86
2023-03-31T16:56:08.904Z,11.91
2023-03-31T16:58:38.662Z,11.92
2023-03-31T17:01:09.048Z,11.92
2023-03-31T17:03:42.520Z,11.86
2023-03-31T17:06:13.338Z,11.80
2023-03-31T17:08:42.694Z,11.71
2023-03-31T17:11:14.958Z,11.59
2023-03-31T17:13:45.790Z,11.46
2023-03-31T17:16:19.310Z,11.32
2023-03-31T17:18:56.236Z,11.19
2023-03-31T17:21:25.640Z,11.08
2023-03-31T17:23:55.209Z,10.99
2023-03-31T17:26:24.819Z,10.91
2023-03-31T17:28:54.067Z,10.84
2023-03-31T17:31:23.403Z,10.78
2023-03-31T17:33:52.940Z,10.74
2023-03-31T17:36:22.885Z,10.70
2023-03-31T17:38:52.474Z,10.70
2023-03-31T17:41:22.246Z,10.70
2023-03-31T17:43:52.782Z,10.70
2023-03-31T17:46:25.247Z,10.69
2023-03-31T17:48:57.010Z,10.69
2023-03-31T17:51:26.320Z,10.68
2023-03-31T17:53:56.021Z,10.65
2023-03-31T17:56:28.684Z,10.62
2023-03-31T17:58:58.667Z,10.57
2023-03-31T18:01:29.334Z,10.54
2023-03-31T18:03:59.573Z,10.49
2023-03-31T18:06:29.551Z,10.46
2023-03-31T18:08:58.876Z,10.44
2023-03-31T18:11:28.370Z,10.40
2023-03-31T18:13:57.484Z,10.40
2023-03-31T18:16:28.186Z,10.38
2023-03-31T18:18:59.110Z,10.36
2023-03-31T18:21:29.685Z,10.34
2023-03-31T18:23:59.790Z,10.31
2023-03-31T18:26:30.135Z,10.26
2023-03-31T18:29:00.316Z,10.23
2023-03-31T18:31:32.155Z,10.20
2023-03-31T18:34:01.509Z,10.18
2023-03-31T18:36:32.548Z,10.15
2023-03-31T18:39:05.743Z,10.12
2023-03-31T18:41:40.594Z,10.08
2023-03-31T18:44:11.273Z,10.01
2023-03-31T18:46:49.938Z,9.94
2023-03-31T18:49:23.036Z,9.85
2023-03-31T18:51:55.889Z,9.79
2023-03-31T18:54:27.352Z,9.72
2023-03-31T18:56:58.056Z,9.65
2023-03-31T18:59:29.813Z,9.59
2023-03-31T19:02:00.665Z,9.51
2023-03-31T19:04:31.111Z,9.43
2023-03-31T19:07:02.917Z,9.32
2023-03-31T19:09:35.244Z,9.20
2023-03-31T19:12:06.977Z,9.09
2023-03-31T19:14:42.083Z,9.01
2023-03-31T19:17:12.427Z,8.95
2023-03-31T19:19:42.883Z,8.89
2023-03-31T19:22:15.577Z,8.82
2023-03-31T19:24:45.563Z,8.79
2023-03-31T19:27:16.498Z,8.78
2023-03-31T19:29:48.415Z,8.76
2023-03-31T19:32:19.433Z,8.74
2023-03-31T19:34:50.473Z,8.72
2023-03-31T19:37:24.307Z,8.71
2023-03-31T19:39:56.144Z,8.70
2023-03-31T19:42:27.574Z,8.69
2023-03-31T19:44:57.884Z,8.66
2023-03-31T19:47:29.945Z,8.62
2023-03-31T19:50:02.265Z,8.58
2023-03-31T19:52:34.459Z,8.55
2023-03-31T19:55:06.416Z,8.53
2023-03-31T19:57:43.519Z,8.49
2023-03-31T20:00:14.704Z,8.41
2023-03-31T20:02:45.459Z,8.34
2023-03-31T20:05:20.272Z,8.27
2023-03-31T20:07:50.062Z,8.22
2023-03-31T20:10:21.636Z,8.17
2023-03-31T20:12:52.854Z,8.13
2023-03-31T20:15:23.910Z,8.09
2023-03-31T20:17:55.063Z,8.07
2023-03-31T20:20:26.159Z,8.05
2023-03-31T20:22:56.374Z,8.04
2023-03-31T20:25:28.995Z,8.05
2023-03-31T20:28:00.026Z,8.06
2023-03-31T20:30:30.962Z,8.08
2023-03-31T20:33:01.399Z,8.11
2023-03-31T20:35:32.796Z,8.12
2023-03-31T20:38:02.326Z,8.11
2023-03-31T20:40:32.144Z,8.07
2023-03-31T20:43:01.456Z,8.07
2023-03-31T20:45:32.366Z,8.12
2023-03-31T20:48:03.961Z,8.19
2023-03-31T20:50:36.087Z,8.28
2023-03-31T20:53:07.472Z,8.37
2023-03-31T20:55:37.240Z,8.48
2023-03-31T20:58:06.362Z,8.57
2023-03-31T21:00:35.703Z,8.66
2023-03-31T21:03:04.879Z,8.72
2023-03-31T21:05:33.948Z,8.74
2023-03-31T21:08:03.279Z,8.74
2023-03-31T21:10:32.660Z,8.71
2023-03-31T21:13:01.863Z,8.65
2023-03-31T21:15:31.289Z,8.59
2023-03-31T21:18:00.235Z,8.52
2023-03-31T21:20:31.410Z,8.46
2023-03-31T21:23:03.248Z,8.40
2023-03-31T21:25:33.362Z,8.36
2023-03-31T21:28:02.383Z,8.32
2023-03-31T21:30:32.604Z,8.28
2023-03-31T21:33:01.491Z,8.24
2023-03-31T21:35:32.253Z,8.20
2023-03-31T21:38:03.582Z,8.15
2023-03-31T21:40:33.721Z,8.10
2023-03-31T21:43:03.085Z,8.03
2023-03-31T21:45:32.303Z,7.96
2023-03-31T21:48:01.859Z,7.89
2023-03-31T21:50:32.213Z,7.82
2023-03-31T21:53:05.104Z,7.72
2023-03-31T21:55:35.596Z,7.63
2023-03-31T21:58:06.048Z,7.56
2023-03-31T22:00:36.483Z,7.51
2023-03-31T22:03:22.332Z,7.47
2023-03-31T22:05:54.938Z,7.44
2023-03-31T22:08:24.052Z,7.42
2023-03-31T22:10:54.167Z,7.40
2023-03-31T22:13:24.814Z,7.38
2023-03-31T22:15:53.848Z,7.37
2023-03-31T22:18:23.085Z,7.37
2023-03-31T22:20:52.713Z,7.37
2023-03-31T22:23:21.981Z,7.39
2023-03-31T22:25:51.001Z,7.39
2023-03-31T22:28:19.751Z,7.40
2023-03-31T22:30:48.600Z,7.41
2023-03-31T22:33:17.544Z,7.43
2023-03-31T22:35:47.384Z,7.44
2023-03-31T22:38:17.594Z,7.44
2023-03-31T22:40:46.252Z,7.45
2023-03-31T22:43:15.135Z,7.46
2023-03-31T22:45:43.625Z,7.46
2023-03-31T22:48:13.223Z,7.47
2023-03-31T22:50:43.708Z,7.48
2023-03-31T22:53:13.371Z,7.48
2023-03-31T22:55:43.439Z,7.49
2023-03-31T22:58:23.150Z,7.51
2023-03-31T23:00:58.889Z,7.52
2023-03-31T23:03:27.979Z,7.54
2023-03-31T23:05:57.390Z,7.55
2023-03-31T23:08:26.481Z,7.55
2023-03-31T23:10:58.018Z,7.56
2023-03-31T23:13:27.654Z,7.58
2023-03-31T23:15:57.046Z,7.59
2023-03-31T23:18:26.243Z,7.60
2023-03-31T23:20:55.357Z,7.60
2023-03-31T23:23:24.339Z,7.61
2023-03-31T23:25:53.212Z,7.63
2023-03-31T23:28:22.215Z,7.66
2023-03-31T23:30:56.934Z,7.70
2023-03-31T23:33:28.306Z,7.73
2023-03-31T23:36:06.263Z,7.75
2023-03-31T23:38:35.831Z,7.77
2023-03-31T23:41:04.792Z,7.79
2023-03-31T23:43:33.672Z,7.81
2023-03-31T23:46:06.659Z,7.82
2023-03-31T23:48:37.079Z,7.83
2023-03-31T23:51:07.928Z,7.83
2023-03-31T23:53:37.123Z,7.85
2023-03-31T23:56:09.100Z,7.86
2023-03-31T23:58:38.172Z,7.86
